Gulf Shores, AL

3:53 AM CDT on August 05, 2015 (GMT -0500)
APRSWXNET | | Change Station
CLOSE
Current Station
Personal Weather Station
Location: Bon Secour, AL
Elevation: 29 ft
Nearby Weather Stations

Elev 29 ft 30.30 °N, 87.70 °W | Updated 35 minutes ago

Mostly Cloudy
Mostly Cloudy
83 °F
Feels Like 92 °F
N
2
Wind Variable Wind from WSW
Gusts 4.0 mph

Today
High -- | Low -- °F
--% Chance of Precip.
Yesterday
High -- | Low -- °F
Precip. -- in
6:11 AM 7:41 PM
Waning Gibbous, 69% visible
Pressure 30.00 in
Visibility 10.0 miles
Clouds Scattered Clouds 2400 ft
Scattered Clouds 6000 ft
Mostly Cloudy 11000 ft
Heat Index 92 °F
Dew Point 77 °F
Humidity 82%
Rainfall in
Snow Depth Not available.
UV 0 out of 12
Pollen 4.20 out of 12
Air Quality Not available.
Flu Activity Not available.
METAR KJKA 050835Z AUTO 24006KT 10SM SCT024 SCT060 BKN110 29/24 A3000 RMK AO2 T02850241

More Conditions Fewer Conditions

Pressure 30.00 in
Visibility 10.0 miles
Clouds Scattered Clouds 2400 ft
Scattered Clouds 6000 ft
Mostly Cloudy 11000 ft
Heat Index 92 °F
Dew Point 77 °F
Humidity 82%
Rainfall in
Snow Depth Not available.
UV 0 out of 12
Pollen 4.20 out of 12
Air Quality Not available.
Flu Activity Not available.
METAR KJKA 050835Z AUTO 24006KT 10SM SCT024 SCT060 BKN110 29/24 A3000 RMK AO2 T02850241

More Conditions Fewer Conditions

10-Day Weather Forecast

×

Almanac

Astronomy

Aug. 05, 2015 Rise Set
Actual Time
Civil Twilight
Nautical Twilight
Astronomical Twilight
Moon
Length of Visible Light
Length of Day
Tomorrow will be .
, % of the Moon is Illuminated

Today's Extremes

State Highs State Lows

Community

WunderPhotos

Upload Photos

1,844,105 photos uploaded!

WunderBlogs® & News

Nearby

Air Quality

  Air Quality AQ Index Pollutant
Not available.

Snow Depth

Station Depth Elevation

Earthquake Activity

City Distance Mag. Time & Date
Minimum magnitude displayed is 2.5.

Coastal Water Temperatures

Place Temperature

Stations

Nearby Weather Stations

Station Location Temp. Windchill Dew Point Humidity Wind Precip. Elev Updated Type